createdAt,value
2018-03-11T00:01:07.881Z,104.67
2018-03-11T00:03:35.334Z,99.37
2018-03-11T00:06:02.785Z,104.77
2018-03-11T00:08:30.238Z,92.63
2018-03-11T00:10:57.694Z,89.43
2018-03-11T00:13:25.230Z,96.17
2018-03-11T00:15:52.662Z,101.67
2018-03-11T00:18:20.158Z,107.77
2018-03-11T00:20:47.603Z,98.53
2018-03-11T00:23:15.074Z,99.00
2018-03-11T00:25:42.519Z,92.63
2018-03-11T00:28:09.995Z,100.50
2018-03-11T00:30:38.250Z,100.83
2018-03-11T00:33:05.974Z,83.03
2018-03-11T00:35:34.217Z,75.37
2018-03-11T00:38:01.677Z,88.00
2018-03-11T00:40:29.139Z,81.70
2018-03-11T00:42:56.574Z,92.70
2018-03-11T00:45:24.031Z,84.00
2018-03-11T00:47:51.518Z,81.90
2018-03-11T00:50:18.995Z,80.77
2018-03-11T00:52:47.222Z,86.40
2018-03-11T00:55:15.077Z,88.53
2018-03-11T00:57:42.538Z,84.10
2018-03-11T01:00:10.355Z,86.60
2018-03-11T01:02:37.817Z,88.57
2018-03-11T01:05:06.030Z,87.53
2018-03-11T01:07:33.490Z,91.03
2018-03-11T01:10:00.959Z,103.10
2018-03-11T01:12:28.406Z,95.70
2018-03-11T01:14:55.867Z,99.07
2018-03-11T01:17:23.319Z,95.87
2018-03-11T01:19:50.874Z,87.77
2018-03-11T01:22:18.347Z,94.20
2018-03-11T01:24:45.823Z,98.10
2018-03-11T01:27:13.292Z,90.57
2018-03-11T01:29:40.755Z,70.33
2018-03-11T01:32:08.190Z,72.73
2018-03-11T01:34:35.647Z,66.33
2018-03-11T01:37:03.106Z,57.40
2018-03-11T01:39:30.597Z,56.87
2018-03-11T01:41:58.066Z,57.30
2018-03-11T01:44:25.517Z,66.77
2018-03-11T01:46:52.960Z,67.07
2018-03-11T01:49:20.399Z,57.17
2018-03-11T01:51:47.874Z,53.93
2018-03-11T01:54:15.323Z,76.77
2018-03-11T01:56:42.762Z,78.47
2018-03-11T01:59:10.242Z,74.83
2018-03-11T02:01:37.686Z,55.57
2018-03-11T02:04:05.123Z,64.47
2018-03-11T02:06:32.584Z,74.60
2018-03-11T02:09:00.047Z,64.20
2018-03-11T02:11:27.512Z,65.57
2018-03-11T02:13:54.965Z,73.63
2018-03-11T02:16:22.410Z,89.37
2018-03-11T02:18:49.887Z,89.70
2018-03-11T02:21:17.333Z,90.10
2018-03-11T02:23:44.811Z,82.93
2018-03-11T02:26:12.282Z,80.60
2018-03-11T02:28:40.488Z,86.83
2018-03-11T02:31:09.608Z,83.27
2018-03-11T02:33:37.085Z,77.83
2018-03-11T02:36:04.541Z,77.90
2018-03-11T02:38:31.993Z,86.90
2018-03-11T02:40:59.551Z,91.30
2018-03-11T02:43:27.008Z,97.53
2018-03-11T02:45:54.442Z,97.53
2018-03-11T02:48:21.915Z,96.77
2018-03-11T02:50:49.372Z,95.27
2018-03-11T02:53:16.847Z,87.07
2018-03-11T02:55:45.061Z,93.33
2018-03-11T02:58:13.322Z,85.37
2018-03-11T03:00:40.776Z,95.83
2018-03-11T03:03:08.298Z,94.33
2018-03-11T03:05:35.751Z,103.67
2018-03-11T03:08:03.322Z,104.57
2018-03-11T03:10:30.786Z,101.33
2018-03-11T03:12:58.255Z,98.57
2018-03-11T03:15:25.698Z,100.33
2018-03-11T03:17:53.168Z,99.83
2018-03-11T03:20:20.754Z,95.47
2018-03-11T03:22:48.203Z,104.00
2018-03-11T03:25:17.168Z,92.70
2018-03-11T03:27:44.623Z,100.27
2018-03-11T03:30:12.087Z,92.13
2018-03-11T03:32:39.545Z,80.37
2018-03-11T03:35:07.019Z,97.10
2018-03-11T03:37:39.385Z,91.00
2018-03-11T03:40:06.875Z,95.60
2018-03-11T03:42:35.126Z,95.17
2018-03-11T03:45:02.610Z,100.87
2018-03-11T03:47:30.085Z,94.37
2018-03-11T03:49:57.566Z,102.70
2018-03-11T03:52:25.054Z,101.90
2018-03-11T03:54:52.519Z,93.00
2018-03-11T03:57:19.978Z,100.23
2018-03-11T03:59:48.238Z,106.70
2018-03-11T04:02:15.704Z,104.93
2018-03-11T04:04:43.186Z,102.50
2018-03-11T04:07:10.639Z,110.73
2018-03-11T04:09:38.895Z,94.90
2018-03-11T04:12:06.353Z,99.53
2018-03-11T04:14:33.818Z,92.53
2018-03-11T04:17:01.284Z,94.03
2018-03-11T04:19:29.541Z,71.57
2018-03-11T04:21:57.018Z,81.57
2018-03-11T04:24:24.526Z,76.47
2018-03-11T04:26:51.990Z,88.30
2018-03-11T04:29:19.485Z,91.73
2018-03-11T04:31:47.718Z,105.17
2018-03-11T04:34:15.174Z,102.07
2018-03-11T04:36:42.671Z,94.90
2018-03-11T04:39:10.915Z,98.80
2018-03-11T04:41:38.398Z,109.23
2018-03-11T04:44:05.855Z,95.30
2018-03-11T04:46:33.418Z,98.87
2018-03-11T04:49:01.691Z,101.53
2018-03-11T04:51:29.146Z,94.37
2018-03-11T04:53:56.597Z,87.00
2018-03-11T04:56:24.118Z,90.27
2018-03-11T04:58:51.573Z,93.17
2018-03-11T05:01:19.054Z,97.87
2018-03-11T05:03:46.514Z,89.67
2018-03-11T05:06:14.266Z,85.13
2018-03-11T05:08:41.738Z,93.27
2018-03-11T05:11:09.218Z,88.30
2018-03-11T05:13:36.699Z,80.97
2018-03-11T05:16:04.191Z,84.43
2018-03-11T05:18:31.759Z,81.77
2018-03-11T05:20:59.334Z,87.10
2018-03-11T05:23:27.607Z,97.57
2018-03-11T05:25:55.097Z,96.87
2018-03-11T05:28:22.727Z,85.23
2018-03-11T05:30:50.207Z,86.60
2018-03-11T05:33:17.715Z,85.00
2018-03-11T05:35:45.207Z,93.73
2018-03-11T05:38:12.672Z,99.40
2018-03-11T05:40:41.038Z,96.83
2018-03-11T05:43:08.545Z,97.50
2018-03-11T05:45:36.019Z,97.80
2018-03-11T05:48:03.515Z,88.17
2018-03-11T05:50:30.982Z,93.67
2018-03-11T05:52:59.337Z,91.87
2018-03-11T05:55:26.894Z,84.57
2018-03-11T05:57:54.463Z,82.27
2018-03-11T06:00:21.922Z,88.83
2018-03-11T06:02:49.406Z,87.97
2018-03-11T06:05:16.873Z,89.80
2018-03-11T06:07:44.337Z,82.47
2018-03-11T06:10:11.805Z,88.80
2018-03-11T06:12:39.257Z,84.07
2018-03-11T06:15:06.818Z,96.00
2018-03-11T06:17:34.277Z,85.47
2018-03-11T06:20:01.780Z,92.50
2018-03-11T06:22:29.259Z,90.97
2018-03-11T06:24:56.722Z,75.93
2018-03-11T06:27:24.206Z,76.43
2018-03-11T06:29:51.664Z,80.67
2018-03-11T06:32:19.165Z,81.77
2018-03-11T06:34:46.646Z,73.63
2018-03-11T06:37:14.914Z,75.10
2018-03-11T06:39:43.197Z,84.97
2018-03-11T06:42:11.436Z,90.17
2018-03-11T06:44:38.898Z,81.43
2018-03-11T06:47:06.457Z,85.67
2018-03-11T06:49:33.969Z,81.23
2018-03-11T06:52:01.406Z,79.00
2018-03-11T06:54:29.622Z,80.83
2018-03-11T06:56:57.106Z,80.87
2018-03-11T06:59:24.568Z,70.60
2018-03-11T07:01:52.042Z,79.20
2018-03-11T07:04:20.403Z,73.40
2018-03-11T07:06:48.005Z,84.60
2018-03-11T07:09:15.474Z,72.83
2018-03-11T07:11:42.955Z,70.87
2018-03-11T07:14:10.443Z,82.03
2018-03-11T07:16:37.950Z,73.23
2018-03-11T07:19:05.422Z,78.60
2018-03-11T07:21:32.868Z,72.30
2018-03-11T07:24:00.321Z,81.73
2018-03-11T07:26:27.809Z,81.17
2018-03-11T07:28:55.275Z,76.40
2018-03-11T07:31:22.758Z,77.33
2018-03-11T07:33:50.978Z,79.53
2018-03-11T07:36:18.497Z,74.27
2018-03-11T07:38:45.962Z,75.90
2018-03-11T07:41:13.493Z,78.73
2018-03-11T07:43:41.010Z,72.67
2018-03-11T07:46:08.506Z,75.93
2018-03-11T07:48:35.978Z,76.40
2018-03-11T07:51:04.202Z,77.80
2018-03-11T07:53:32.538Z,71.80
2018-03-11T07:55:59.992Z,71.97
2018-03-11T07:58:27.625Z,74.73
2018-03-11T08:00:56.070Z,72.13
2018-03-11T08:03:23.582Z,68.03
2018-03-11T08:05:51.237Z,58.47
2018-03-11T08:08:18.895Z,61.27
2018-03-11T08:10:46.557Z,60.17
2018-03-11T08:13:14.219Z,57.17
2018-03-11T08:15:41.702Z,53.63
2018-03-11T08:18:09.185Z,54.80
2018-03-11T08:20:36.646Z,49.63
2018-03-11T08:23:04.126Z,47.23
2018-03-11T08:25:31.702Z,41.50
2018-03-11T08:27:59.181Z,40.10
2018-03-11T08:30:26.645Z,38.20
2018-03-11T08:32:54.130Z,35.77
2018-03-11T08:35:21.595Z,37.10
2018-03-11T08:37:49.200Z,36.10
2018-03-11T08:40:16.675Z,32.60
2018-03-11T08:42:44.185Z,31.20
2018-03-11T08:45:12.437Z,31.10
2018-03-11T08:47:39.967Z,27.93
2018-03-11T08:50:07.422Z,30.00
2018-03-11T08:52:34.915Z,28.93
2018-03-11T08:55:02.383Z,27.77
2018-03-11T08:57:30.628Z,27.13
2018-03-11T08:59:58.105Z,27.77
2018-03-11T09:02:25.566Z,29.03
2018-03-11T09:04:53.042Z,25.20
2018-03-11T09:07:20.554Z,24.47
2018-03-11T09:09:48.038Z,24.53
2018-03-11T09:12:15.569Z,23.83
2018-03-11T09:14:43.066Z,22.47
2018-03-11T09:17:10.526Z,23.97
2018-03-11T09:19:38.035Z,22.63
2018-03-11T09:22:05.529Z,22.67
2018-03-11T09:24:33.035Z,22.97
2018-03-11T09:27:00.499Z,21.07
2018-03-11T09:29:27.971Z,22.20
2018-03-11T09:31:56.214Z,23.17
2018-03-11T09:34:24.463Z,20.70
2018-03-11T09:36:53.062Z,22.37
2018-03-11T09:39:20.517Z,22.77
2018-03-11T09:41:48.012Z,22.30
2018-03-11T09:44:15.718Z,19.93
2018-03-11T09:46:43.196Z,21.37
2018-03-11T09:49:11.425Z,19.63
2018-03-11T09:51:38.905Z,19.87
2018-03-11T09:54:06.382Z,20.23
2018-03-11T09:56:33.834Z,21.53
2018-03-11T09:59:01.331Z,20.27
2018-03-11T10:01:28.817Z,17.70
2018-03-11T10:03:56.310Z,18.83
2018-03-11T10:06:23.814Z,19.40
2018-03-11T10:08:52.038Z,18.37
2018-03-11T10:11:19.527Z,18.07
2018-03-11T10:13:47.003Z,19.03
2018-03-11T10:16:14.527Z,18.43
2018-03-11T10:18:41.978Z,18.50
2018-03-11T10:21:09.439Z,18.80
2018-03-11T10:23:36.938Z,17.63
2018-03-11T10:26:04.513Z,18.27
2018-03-11T10:28:31.980Z,15.83
2018-03-11T10:30:59.461Z,17.00
2018-03-11T10:33:26.942Z,16.23
2018-03-11T10:35:54.438Z,17.50
2018-03-11T10:38:22.682Z,15.07
2018-03-11T10:40:50.148Z,15.63
2018-03-11T10:43:17.638Z,14.53
2018-03-11T10:45:45.889Z,14.67
2018-03-11T10:48:13.338Z,13.53
2018-03-11T10:50:40.803Z,14.10
2018-03-11T10:53:08.342Z,13.13
2018-03-11T10:55:35.896Z,13.27
2018-03-11T10:58:03.373Z,12.90
2018-03-11T11:00:36.554Z,11.83
2018-03-11T11:03:09.615Z,10.50
2018-03-11T11:05:37.172Z,10.13
2018-03-11T11:08:04.634Z,10.63
2018-03-11T11:10:32.119Z,9.13
2018-03-11T11:12:59.574Z,9.33
2018-03-11T11:15:27.058Z,9.40
2018-03-11T11:17:54.534Z,8.90
2018-03-11T11:20:22.787Z,7.60
2018-03-11T11:22:50.243Z,8.23
2018-03-11T11:25:17.723Z,8.70
2018-03-11T11:27:45.979Z,9.03
2018-03-11T11:30:13.542Z,9.50
2018-03-11T11:32:41.051Z,8.90
2018-03-11T11:35:08.523Z,9.30
2018-03-11T11:37:36.062Z,9.10
2018-03-11T11:40:04.239Z,10.33
2018-03-11T11:42:31.746Z,10.97
2018-03-11T11:44:59.233Z,10.17
2018-03-11T11:47:27.497Z,9.97
2018-03-11T11:49:54.943Z,9.90
2018-03-11T11:52:22.437Z,9.57
2018-03-11T11:54:49.905Z,8.60
2018-03-11T11:57:17.387Z,9.20
2018-03-11T11:59:44.967Z,7.73
2018-03-11T12:02:12.635Z,9.30
2018-03-11T12:04:40.875Z,9.43
2018-03-11T12:07:08.407Z,8.77
2018-03-11T12:09:35.874Z,8.40
2018-03-11T12:12:03.353Z,8.73
2018-03-11T12:14:30.807Z,8.90
2018-03-11T12:16:58.442Z,8.93
2018-03-11T12:19:25.911Z,9.20
2018-03-11T12:21:53.385Z,8.60
2018-03-11T12:24:20.870Z,7.80
2018-03-11T12:26:48.350Z,7.83
2018-03-11T12:29:16.569Z,7.23
2018-03-11T12:31:44.108Z,7.30
2018-03-11T12:34:11.600Z,6.80
2018-03-11T12:36:39.101Z,5.97
2018-03-11T12:39:07.363Z,6.23
2018-03-11T12:41:34.826Z,6.03
2018-03-11T12:44:02.370Z,6.10
2018-03-11T12:46:29.833Z,6.33
2018-03-11T12:48:57.318Z,5.87
2018-03-11T12:51:24.810Z,5.93
2018-03-11T12:53:53.048Z,6.13
2018-03-11T12:56:20.552Z,6.43
2018-03-11T12:58:48.003Z,6.20
2018-03-11T13:01:16.475Z,6.87
2018-03-11T13:03:43.984Z,7.00
2018-03-11T13:06:11.439Z,7.17
2018-03-11T13:08:39.005Z,6.50
2018-03-11T13:11:06.623Z,6.87
2018-03-11T13:13:34.970Z,7.10
2018-03-11T13:16:02.449Z,7.07
2018-03-11T13:18:29.905Z,6.30
2018-03-11T13:21:07.091Z,6.30
2018-03-11T13:23:34.538Z,6.47
2018-03-11T13:26:02.014Z,6.03
2018-03-11T13:28:42.166Z,6.27
2018-03-11T13:31:10.410Z,5.53
2018-03-11T13:33:49.681Z,5.90
2018-03-11T13:36:17.938Z,5.70
2018-03-11T13:38:57.281Z,6.10
2018-03-11T13:41:24.746Z,5.50
2018-03-11T13:43:52.198Z,4.57
2018-03-11T13:46:31.551Z,5.30
2018-03-11T13:48:58.990Z,5.87
2018-03-11T13:51:39.450Z,4.60
2018-03-11T13:54:07.009Z,6.03
2018-03-11T13:56:34.669Z,5.87
2018-03-11T13:59:02.953Z,5.63
2018-03-11T14:01:30.458Z,5.20
2018-03-11T14:03:57.944Z,5.37
2018-03-11T14:06:25.394Z,5.10
2018-03-11T14:08:52.938Z,4.97
2018-03-11T14:11:20.412Z,5.53
2018-03-11T14:13:47.926Z,5.10
2018-03-11T14:16:15.405Z,5.27
2018-03-11T14:18:42.915Z,5.30
2018-03-11T14:21:10.425Z,5.57
2018-03-11T14:23:37.881Z,5.37
2018-03-11T14:26:06.134Z,5.30
2018-03-11T14:28:33.590Z,5.43
2018-03-11T14:31:01.066Z,5.37
2018-03-11T14:33:28.568Z,4.97
2018-03-11T14:35:56.866Z,5.00
2018-03-11T14:38:24.494Z,4.93
2018-03-11T14:40:51.977Z,4.57
2018-03-11T14:43:20.217Z,4.87
2018-03-11T14:45:47.827Z,5.67
2018-03-11T14:48:16.066Z,4.60
2018-03-11T14:50:43.581Z,5.40
2018-03-11T14:53:11.074Z,5.03
2018-03-11T14:55:38.654Z,5.33
2018-03-11T14:58:06.135Z,5.27
2018-03-11T15:00:33.760Z,4.97
2018-03-11T15:03:01.368Z,4.50
2018-03-11T15:05:28.801Z,4.80
2018-03-11T15:07:57.210Z,5.27
2018-03-11T15:10:24.682Z,5.03
2018-03-11T15:12:52.174Z,4.80
2018-03-11T15:15:19.741Z,4.47
2018-03-11T15:17:47.201Z,4.63
2018-03-11T15:20:14.776Z,4.83
2018-03-11T15:22:42.218Z,4.93
2018-03-11T15:25:09.704Z,4.33
2018-03-11T15:27:37.966Z,6.17
2018-03-11T15:30:05.422Z,4.77
2018-03-11T15:32:32.914Z,3.87
2018-03-11T15:35:01.126Z,4.03
2018-03-11T15:37:28.617Z,5.20
2018-03-11T15:39:56.838Z,4.70
2018-03-11T15:42:24.336Z,4.90
2018-03-11T15:44:51.790Z,4.30
2018-03-11T15:47:19.265Z,4.70
2018-03-11T15:49:47.512Z,4.07
2018-03-11T15:52:14.970Z,4.33
2018-03-11T15:54:42.447Z,4.00
2018-03-11T15:57:09.909Z,4.80
2018-03-11T15:59:38.174Z,4.33
2018-03-11T16:02:06.409Z,4.33
2018-03-11T16:04:33.891Z,4.67
2018-03-11T16:07:01.378Z,4.80
2018-03-11T16:09:29.726Z,4.87
2018-03-11T16:11:57.241Z,5.00
2018-03-11T16:14:24.688Z,5.30
2018-03-11T16:16:52.973Z,5.53
2018-03-11T16:19:21.200Z,5.27
2018-03-11T16:21:48.682Z,5.40
2018-03-11T16:24:28.279Z,5.63
2018-03-11T16:26:44.563Z,5.90
2018-03-11T16:29:12.022Z,6.03
2018-03-11T16:31:39.518Z,7.10
2018-03-11T16:34:06.975Z,7.20
2018-03-11T16:36:34.450Z,7.43
2018-03-11T16:39:01.894Z,7.47
2018-03-11T16:41:29.567Z,7.57
2018-03-11T16:43:57.030Z,6.77
2018-03-11T16:46:24.682Z,7.13
2018-03-11T16:48:52.159Z,8.07
2018-03-11T16:51:20.521Z,7.60
2018-03-11T16:53:47.977Z,7.47
2018-03-11T16:56:15.438Z,7.27
2018-03-11T16:58:44.523Z,7.13
2018-03-11T17:01:11.990Z,7.37
2018-03-11T17:03:40.290Z,7.50
2018-03-11T17:06:07.780Z,8.13
2018-03-11T17:08:36.003Z,8.37
2018-03-11T17:11:03.466Z,8.60
2018-03-11T17:13:31.735Z,8.90
2018-03-11T17:15:59.223Z,9.60
2018-03-11T17:18:26.676Z,8.30
2018-03-11T17:20:54.175Z,9.10
2018-03-11T17:23:21.630Z,8.73
2018-03-11T17:25:49.127Z,9.60
2018-03-11T17:28:16.583Z,9.27
2018-03-11T17:30:44.067Z,9.77
2018-03-11T17:33:12.382Z,9.30
2018-03-11T17:35:39.870Z,9.23
2018-03-11T17:38:07.346Z,9.10
2018-03-11T17:40:34.834Z,9.70
2018-03-11T17:43:03.079Z,9.27
2018-03-11T17:45:30.626Z,10.07
2018-03-11T17:47:59.639Z,10.80
2018-03-11T17:50:28.061Z,10.60
2018-03-11T17:52:56.238Z,10.53
2018-03-11T17:55:23.841Z,11.30
2018-03-11T17:57:51.394Z,10.73
2018-03-11T18:00:18.862Z,13.70
2018-03-11T18:02:46.446Z,13.30
2018-03-11T18:05:13.925Z,16.63
2018-03-11T18:07:41.380Z,12.90
2018-03-11T18:10:08.889Z,18.60
2018-03-11T18:12:36.417Z,16.30
2018-03-11T18:15:04.630Z,14.63
2018-03-11T18:17:32.858Z,14.97
2018-03-11T18:20:00.343Z,14.23
2018-03-11T18:22:27.810Z,14.67
2018-03-11T18:24:55.294Z,14.77
2018-03-11T18:27:23.543Z,13.87
2018-03-11T18:29:51.071Z,14.57
2018-03-11T18:32:18.566Z,15.73
2018-03-11T18:34:46.067Z,17.00
2018-03-11T18:37:13.526Z,15.83
2018-03-11T18:39:41.015Z,16.37
2018-03-11T18:42:08.503Z,16.13
2018-03-11T18:44:36.015Z,16.27
2018-03-11T18:47:03.466Z,18.30
2018-03-11T18:49:30.934Z,17.37
2018-03-11T18:51:58.416Z,17.37
2018-03-11T18:54:25.904Z,16.70
2018-03-11T18:56:53.411Z,17.37
2018-03-11T18:59:20.880Z,17.00
2018-03-11T19:01:48.401Z,17.70
2018-03-11T19:04:15.886Z,17.07
2018-03-11T19:06:43.371Z,18.83
2018-03-11T19:09:10.848Z,19.33
2018-03-11T19:11:38.335Z,17.30
2018-03-11T19:14:05.829Z,17.13
2018-03-11T19:16:33.308Z,18.50
2018-03-11T19:19:01.587Z,18.47
2018-03-11T19:21:29.071Z,17.73
2018-03-11T19:23:57.328Z,16.47
2018-03-11T19:26:24.996Z,17.03
2018-03-11T19:28:53.258Z,18.17
2018-03-11T19:31:20.718Z,17.13
2018-03-11T19:33:48.181Z,14.37
2018-03-11T19:36:15.660Z,18.17
2018-03-11T19:38:43.903Z,18.43
2018-03-11T19:41:12.240Z,17.43
2018-03-11T19:43:39.738Z,17.17
2018-03-11T19:46:07.241Z,17.17
2018-03-11T19:48:34.741Z,16.80
2018-03-11T19:51:02.279Z,18.10
2018-03-11T19:53:29.782Z,17.47
2018-03-11T19:55:57.319Z,19.37
2018-03-11T19:58:24.743Z,20.47
2018-03-11T20:00:52.202Z,19.07
2018-03-11T20:03:19.702Z,19.57
2018-03-11T20:05:47.636Z,19.70
2018-03-11T20:08:15.101Z,18.60
2018-03-11T20:10:42.586Z,19.67
2018-03-11T20:13:10.051Z,17.83
2018-03-11T20:15:37.547Z,19.43
2018-03-11T20:18:05.778Z,20.47
2018-03-11T20:20:33.271Z,19.60
2018-03-11T20:23:01.599Z,20.73
2018-03-11T20:25:29.221Z,20.47
2018-03-11T20:27:57.606Z,22.27
2018-03-11T20:30:25.114Z,22.03
2018-03-11T20:32:52.676Z,18.90
2018-03-11T20:35:20.210Z,18.43
2018-03-11T20:37:47.707Z,20.47
2018-03-11T20:40:15.201Z,19.47
2018-03-11T20:42:42.687Z,23.13
2018-03-11T20:45:10.184Z,24.53
2018-03-11T20:47:37.678Z,23.37
2018-03-11T20:50:05.191Z,31.23
2018-03-11T20:52:32.654Z,31.13
2018-03-11T20:55:00.183Z,37.37
2018-03-11T20:57:27.724Z,30.47
2018-03-11T20:59:55.208Z,29.40
2018-03-11T21:02:22.923Z,35.60
2018-03-11T21:04:50.489Z,39.83
2018-03-11T21:07:18.850Z,42.00
2018-03-11T21:09:46.385Z,39.30
2018-03-11T21:12:13.893Z,32.53
2018-03-11T21:14:41.372Z,31.63
2018-03-11T21:17:08.852Z,40.83
2018-03-11T21:19:36.322Z,39.10
2018-03-11T21:22:03.824Z,43.17
2018-03-11T21:24:31.357Z,39.10
2018-03-11T21:26:58.835Z,39.57
2018-03-11T21:29:27.123Z,38.03
2018-03-11T21:31:55.380Z,38.10
2018-03-11T21:34:27.622Z,40.10
2018-03-11T21:36:55.113Z,41.30
2018-03-11T21:39:22.587Z,41.20
2018-03-11T21:41:50.849Z,45.70
2018-03-11T21:44:18.345Z,43.97
2018-03-11T21:46:45.970Z,29.33
2018-03-11T21:49:13.500Z,31.70
2018-03-11T21:51:40.978Z,45.37
2018-03-11T21:54:08.505Z,41.07
2018-03-11T21:56:36.014Z,42.50
2018-03-11T21:59:03.510Z,35.40
2018-03-11T22:01:30.996Z,37.43
2018-03-11T22:03:59.300Z,38.77
2018-03-11T22:06:26.903Z,32.43
2018-03-11T22:08:54.365Z,27.40
2018-03-11T22:11:21.840Z,31.20
2018-03-11T22:13:49.296Z,37.17
2018-03-11T22:16:17.670Z,41.40
2018-03-11T22:18:45.167Z,35.60
2018-03-11T22:21:12.650Z,34.17
2018-03-11T22:23:40.920Z,27.27
2018-03-11T22:26:08.456Z,37.30
2018-03-11T22:28:35.918Z,47.57
2018-03-11T22:31:03.398Z,42.33
2018-03-11T22:33:30.859Z,38.50
2018-03-11T22:35:58.351Z,43.80
2018-03-11T22:38:25.806Z,45.00
2018-03-11T22:40:53.285Z,42.17
2018-03-11T22:43:20.741Z,34.13
2018-03-11T22:45:48.221Z,23.80
2018-03-11T22:48:16.447Z,37.90
2018-03-11T22:50:43.929Z,39.97
2018-03-11T22:53:11.410Z,46.50
2018-03-11T22:55:38.895Z,39.23
2018-03-11T22:58:06.394Z,37.90
2018-03-11T23:00:33.886Z,46.50
2018-03-11T23:03:01.384Z,43.53
2018-03-11T23:05:28.850Z,23.50
2018-03-11T23:07:56.323Z,38.10
2018-03-11T23:10:23.778Z,38.13
2018-03-11T23:12:51.258Z,40.07
2018-03-11T23:15:18.734Z,34.77
2018-03-11T23:17:47.017Z,25.70
2018-03-11T23:20:15.367Z,40.57
2018-03-11T23:22:42.850Z,36.20
2018-03-11T23:25:11.057Z,32.33
2018-03-11T23:27:38.563Z,28.93
2018-03-11T23:30:06.112Z,26.93
2018-03-11T23:32:33.577Z,34.10
2018-03-11T23:35:01.048Z,29.10
2018-03-11T23:37:29.277Z,27.67
2018-03-11T23:39:56.746Z,30.13
2018-03-11T23:42:24.242Z,31.40
2018-03-11T23:44:51.730Z,27.13
2018-03-11T23:47:19.209Z,27.80
2018-03-11T23:49:46.685Z,29.77
2018-03-11T23:52:14.173Z,33.00
2018-03-11T23:54:42.389Z,21.40
2018-03-11T23:57:09.952Z,25.97
2018-03-11T23:59:37.398Z,29.23
